23:02
Airports
Links
Donate
Help keep this website running!
PayPal
Bitcoin
METAR
EGLL 222250Z AUTO 04004KT 9999 NCD 01/M02 Q1023 NOSIG
Current Weather Conditions at EGLL
VFR 22:50:00 22-02-18
Automated station, no observer
Altimeter:30.21 hg
Temp:1.0°c 34°f
Dew point:-2.0°c 28°f
Wind:4 knots, 4.6 mph, 2 m/s, from 40°
Visibility:6.21 statute miles
(CLR) Clear
No significant weather changes expected within 2 hours.
Past METAR reports
VFR 22:20:00 22-02-18
Automated station, no observer
Altimeter:30.21 hg
Temp:0.0°c 32°f
Dew point:-3.0°c 27°f
Wind:4 knots, 4.6 mph, 2 m/s, from 10°
Visibility:6.21 statute miles
(CLR) Clear
EGLL 222220Z AUTO 01004KT 9999 NCD 00/M03 Q1023
VFR 21:50:00 22-02-18
Automated station, no observer
Altimeter:30.21 hg
Temp:1.0°c 34°f
Dew point:-3.0°c 27°f
Wind:4 knots, 4.6 mph, 2 m/s, from 40°
Visibility:6.21 statute miles
(CLR) Clear
EGLL 222150Z AUTO 04004KT 9999 NCD 01/M03 Q1023
VFR 21:20:00 22-02-18
Automated station, no observer
Altimeter:30.21 hg
Temp:2.0°c 36°f
Dew point:-3.0°c 27°f
Wind:5 knots, 5.8 mph, 3 m/s, from 50°
Visibility:6.21 statute miles
(CLR) Clear
No significant weather changes expected within 2 hours.
EGLL 222120Z AUTO 05005KT 9999 NCD 02/M03 Q1023 NOSIG
VFR 20:50:00 22-02-18
Automated station, no observer
Altimeter:30.21 hg
Temp:2.0°c 36°f
Dew point:-3.0°c 27°f
Wind:8 knots, 9.2 mph, 4 m/s, from 60°
Visibility:6.21 statute miles
(CLR) Clear
No significant weather changes expected within 2 hours.
EGLL 222050Z AUTO 06008KT 9999 NCD 02/M03 Q1023 NOSIG
VFR 20:20:00 22-02-18
Automated station, no observer
Altimeter:30.21 hg
Temp:2.0°c 36°f
Dew point:-3.0°c 27°f
Wind:6 knots, 6.9 mph, 3 m/s, from 60°
Visibility:6.21 statute miles
(CLR) Clear
No significant weather changes expected within 2 hours.
EGLL 222020Z AUTO 06006KT 9999 NCD 02/M03 Q1023 NOSIG
VFR 19:50:00 22-02-18
Automated station, no observer
Altimeter:30.21 hg
Temp:2.0°c 36°f
Dew point:-4.0°c 25°f
Wind:6 knots, 6.9 mph, 3 m/s, from 60°
Visibility:6.21 statute miles
(CLR) Clear
EGLL 221950Z AUTO 06006KT 9999 NCD 02/M04 Q1023
TAF
TAF EGLL 221705Z 2218/2324 08008KT 9999 FEW030 PROB30 TEMPO 2302/2308 8000
Forecast at EGLL
18:00 22-02-18 to 00:00 24-02-18
Wind:8 Knots from 80°
Visibility:6.21 statute miles
3000FEW A few
TEMPO 02:00 23-02-18 to 08:00 23-02-18
30%
Visibility:4.97 statute miles